Search for airport 
image banner adimage banner adimage banner ad
image banner ad

1Y9 - Paullina Muni

Located in Paullina, United States

ICAO - 1Y9, IATA -

Data provided by Airmate  

General information

Coordinates: N42°59'16" W95°39'52"
Elevation is 1385 feet MSL.
Magnetic variation is 06° East
View others Airports in Iowa

Operational data

Special qualification required
Current time UTC:
Current local time:
Weather at : KSHL - Sheldon Rgnl ( 28 km )
METAR: KSHL 151015Z AUTO 00000KT 10SM CLR 12/09 A3013 RMK AO2
View NOTAMs / SUP AIP / TFR affecting this airport [VIEW]
Communications frequencies: [VIEW]

Runways:

RWY identifierQFULength (ft)Width (ft)SurfaceLDA (ft)
17181°280028OTHER
35280028OTHER

Airport contact information

Address: Paullina United States

Satellite view of 1Y9